This is the latest recevied weather packets stored in our database for station/object K7SPS-10. If no packets are shown the sender has not sent any weather packets the latest 10 day(s).
| Time | Temp. | Humidity | Pressure | Rain* | Wind** | Luminosity | Snow |
|---|---|---|---|---|---|---|---|
| 1777548684 | 5.56° C | 78% | 1021.8 hPa | 0 mm | - | 0 W/m² | - |
| 1777548381 | 6.11° C | 74% | 1021.6 hPa | 0 mm | - | 0 W/m² | - |
| 1777548078 | 6.11° C | 73% | 1021.6 hPa | 0 mm | - | 0 W/m² | - |
| 1777547774 | 6.11° C | 75% | 1021.5 hPa | 0 mm | - | 0 W/m² | - |
| 1777547470 | 5.56° C | 76% | 1021.4 hPa | 0 mm | - | 0 W/m² | - |
| 1777547168 | 6.11° C | 74% | 1021.5 hPa | 0 mm | - | 0 W/m² | - |
| 1777546865 | 6.11° C | 74% | 1021.6 hPa | 0 mm | - | 0 W/m² | - |
| 1777546561 | 6.11° C | 74% | 1021.3 hPa | 0 mm | - | 0 W/m² | - |
| 1777546258 | 6.67° C | 72% | 1021.3 hPa | 0 mm | - | 0 W/m² | - |
| 1777545955 | 7.22° C | 70% | 1021.1 hPa | 0 mm | - | 0 W/m² | - |
| 1777545651 | 6.11° C | 74% | 1021.1 hPa | 0 mm | - | 0 W/m² | - |
| 1777545349 | 6.11° C | 74% | 1021 hPa | 0 mm | - | 0 W/m² | - |
| 1777545046 | 6.11° C | 74% | 1021.1 hPa | 0 mm | - | 0 W/m² | - |
| 1777544743 | 6.67° C | 72% | 1021 hPa | 0 mm | - | 0 W/m² | - |
| 1777544438 | 6.67° C | 72% | 1021 hPa | 0 mm | - | 0 W/m² | - |
| 1777544134 | 6.67° C | 72% | 1020.8 hPa | 0 mm | - | 0 W/m² | - |
| 1777543832 | 6.67° C | 72% | 1020.7 hPa | 0 mm | - | 0 W/m² | - |
| 1777543528 | 7.22° C | 70% | 1021.1 hPa | 0 mm | - | 0 W/m² | - |
| 1777543225 | 7.22° C | 69% | 1021 hPa | 0 mm | - | 0 W/m² | - |
| 1777542920 | 8.33° C | 67% | 1020.6 hPa | 0 mm | - | 0 W/m² | - |
| 1777542617 | 8.33° C | 65% | 1020.7 hPa | 0 mm | - | 0 W/m² | - |
| 1777542313 | 8.89° C | 63% | 1020.7 hPa | 0 mm | - | 0 W/m² | - |
| 1777542011 | 8.89° C | 63% | 1020.6 hPa | 0 mm | - | 0 W/m² | - |
| 1777541708 | 8.89° C | 62% | 1020.6 hPa | 0 mm | - | 0 W/m² | - |
| 1777541405 | 9.44° C | 61% | 1020.8 hPa | 0 mm | - | 0 W/m² | - |
* Rain latest hour (hover to see other rain measurements)
** Current wind speed in m/s (hover to see current wind gust speed)